createdAt,value
2022-09-12T00:00:36.986Z,13.31
2022-09-12T00:01:37.095Z,13.21
2022-09-12T00:02:37.061Z,13.27
2022-09-12T00:03:37.066Z,13.20
2022-09-12T00:04:37.094Z,13.29
2022-09-12T00:05:37.121Z,13.20
2022-09-12T00:06:37.149Z,13.28
2022-09-12T00:07:37.174Z,13.28
2022-09-12T00:08:37.203Z,13.19
2022-09-12T00:09:37.228Z,13.25
2022-09-12T00:10:37.259Z,13.21
2022-09-12T00:11:37.286Z,13.24
2022-09-12T00:12:37.312Z,13.24
2022-09-12T00:13:41.450Z,13.19
2022-09-12T00:14:37.366Z,13.19
2022-09-12T00:15:37.394Z,13.17
2022-09-12T00:16:37.509Z,13.21
2022-09-12T00:17:37.449Z,13.28
2022-09-12T00:18:37.500Z,13.24
2022-09-12T00:19:37.504Z,13.16
2022-09-12T00:20:37.532Z,13.17
2022-09-12T00:21:37.558Z,13.20
2022-09-12T00:22:37.594Z,13.14
2022-09-12T00:23:37.616Z,13.27
2022-09-12T00:24:37.640Z,13.20
2022-09-12T00:25:37.669Z,13.25
2022-09-12T00:26:37.702Z,13.19
2022-09-12T00:27:37.723Z,13.19
2022-09-12T00:28:37.756Z,13.16
2022-09-12T00:29:37.776Z,13.21
2022-09-12T00:30:37.805Z,13.10
2022-09-12T00:31:37.944Z,13.24
2022-09-12T00:32:37.859Z,13.16
2022-09-12T00:33:37.886Z,13.17
2022-09-12T00:34:37.933Z,13.16
2022-09-12T00:35:37.940Z,13.13
2022-09-12T00:36:37.968Z,13.17
2022-09-12T00:37:37.992Z,13.19
2022-09-12T00:38:38.022Z,13.16
2022-09-12T00:39:38.069Z,13.17
2022-09-12T00:40:38.077Z,13.09
2022-09-12T00:41:38.107Z,13.13
2022-09-12T00:42:38.131Z,13.11
2022-09-12T00:43:38.157Z,13.03
2022-09-12T00:44:38.185Z,12.96
2022-09-12T00:45:38.252Z,12.98
2022-09-12T00:46:38.241Z,12.99
2022-09-12T00:47:38.266Z,12.94
2022-09-12T00:48:38.294Z,13.06
2022-09-12T00:49:38.322Z,13.02
2022-09-12T00:50:38.369Z,13.01
2022-09-12T00:51:38.379Z,12.99
2022-09-12T00:52:38.402Z,13.03
2022-09-12T00:53:38.430Z,13.03
2022-09-12T00:54:38.461Z,13.09
2022-09-12T00:55:38.484Z,12.98
2022-09-12T00:56:38.512Z,13.01
2022-09-12T00:57:38.537Z,12.86
2022-09-12T00:58:38.563Z,12.84
2022-09-12T00:59:38.594Z,12.78
2022-09-12T01:00:38.619Z,12.92
2022-09-12T01:01:38.750Z,12.95
2022-09-12T01:02:38.678Z,12.84
2022-09-12T01:03:38.719Z,12.89
2022-09-12T01:04:38.729Z,12.86
2022-09-12T01:05:38.755Z,12.86
2022-09-12T01:06:38.803Z,12.88
2022-09-12T01:07:40.225Z,12.76
2022-09-12T01:08:38.837Z,12.91
2022-09-12T01:09:38.862Z,12.78
2022-09-12T01:10:38.892Z,12.71
2022-09-12T01:11:38.917Z,12.83
2022-09-12T01:12:38.946Z,12.91
2022-09-12T01:13:38.971Z,12.83
2022-09-12T01:14:38.999Z,12.83
2022-09-12T01:15:39.027Z,12.91
2022-09-12T01:16:39.075Z,12.88
2022-09-12T01:17:39.081Z,12.78
2022-09-12T01:18:39.109Z,12.74
2022-09-12T01:19:39.134Z,12.80
2022-09-12T01:20:39.162Z,12.73
2022-09-12T01:21:39.188Z,12.81
2022-09-12T01:22:39.238Z,12.77
2022-09-12T01:23:39.243Z,12.69
2022-09-12T01:24:39.270Z,12.73
2022-09-12T01:25:39.296Z,12.76
2022-09-12T01:26:39.325Z,12.71
2022-09-12T01:27:39.351Z,12.77
2022-09-12T01:28:39.379Z,12.77
2022-09-12T01:29:39.404Z,12.71
2022-09-12T01:30:39.433Z,12.73
2022-09-12T01:31:39.459Z,12.83
2022-09-12T01:32:39.488Z,12.78
2022-09-12T01:33:39.513Z,12.71
2022-09-12T01:34:39.541Z,12.71
2022-09-12T01:35:39.571Z,12.65
2022-09-12T01:36:39.594Z,12.66
2022-09-12T01:37:39.625Z,12.66
2022-09-12T01:38:39.672Z,12.69
2022-09-12T01:39:39.728Z,12.74
2022-09-12T01:40:39.704Z,12.71
2022-09-12T01:41:39.729Z,12.62
2022-09-12T01:42:39.910Z,12.70
2022-09-12T01:43:39.784Z,12.65
2022-09-12T01:44:39.811Z,12.70
2022-09-12T01:45:39.847Z,12.69
2022-09-12T01:46:39.866Z,12.47
2022-09-12T01:47:39.892Z,12.62
2022-09-12T01:48:39.920Z,12.62
2022-09-12T01:49:39.945Z,12.58
2022-09-12T01:50:39.974Z,12.55
2022-09-12T01:51:40.000Z,12.53
2022-09-12T01:52:40.031Z,12.55
2022-09-12T01:53:40.071Z,12.62
2022-09-12T01:54:40.100Z,12.62
2022-09-12T01:55:40.108Z,12.56
2022-09-12T01:56:40.135Z,12.53
2022-09-12T01:57:40.160Z,12.59
2022-09-12T01:58:40.190Z,12.47
2022-09-12T01:59:40.216Z,12.45
2022-09-12T02:00:40.243Z,12.43
2022-09-12T02:01:40.268Z,12.43
2022-09-12T02:02:40.297Z,12.53
2022-09-12T02:03:40.325Z,12.61
2022-09-12T02:04:40.352Z,12.56
2022-09-12T02:05:40.376Z,12.56
2022-09-12T02:06:40.405Z,12.51
2022-09-12T02:07:40.429Z,12.51
2022-09-12T02:08:40.520Z,12.47
2022-09-12T02:09:40.483Z,12.61
2022-09-12T02:10:40.530Z,12.59
2022-09-12T02:11:40.540Z,12.53
2022-09-12T02:12:40.571Z,12.51
2022-09-12T02:13:40.592Z,12.55
2022-09-12T02:14:40.621Z,12.44
2022-09-12T02:15:40.645Z,12.51
2022-09-12T02:16:40.757Z,12.53
2022-09-12T02:17:40.699Z,12.43
2022-09-12T02:18:40.727Z,12.51
2022-09-12T02:19:40.756Z,12.51
2022-09-12T02:20:49.131Z,12.38
2022-09-12T02:21:40.808Z,12.44
2022-09-12T02:22:40.855Z,12.38
2022-09-12T02:23:40.861Z,12.48
2022-09-12T02:24:40.889Z,12.47
2022-09-12T02:25:40.915Z,12.45
2022-09-12T02:26:40.961Z,12.38
2022-09-12T02:27:40.970Z,12.44
2022-09-12T02:28:41.075Z,12.51
2022-09-12T02:29:41.023Z,12.31
2022-09-12T02:30:41.141Z,12.31
2022-09-12T02:31:41.079Z,12.25
2022-09-12T02:32:41.107Z,12.36
2022-09-12T02:33:41.132Z,12.28
2022-09-12T02:34:41.158Z,12.33
2022-09-12T02:35:41.186Z,12.37
2022-09-12T02:36:41.212Z,12.33
2022-09-12T02:37:41.238Z,12.34
2022-09-12T02:38:41.278Z,12.36
2022-09-12T02:39:45.187Z,12.41
2022-09-12T02:40:41.322Z,12.38
2022-09-12T02:41:41.346Z,12.34
2022-09-12T02:42:41.393Z,12.25
2022-09-12T02:43:41.401Z,12.29
2022-09-12T02:44:41.428Z,12.41
2022-09-12T02:45:41.482Z,12.41
2022-09-12T02:46:41.482Z,12.37
2022-09-12T02:47:41.507Z,12.33
2022-09-12T02:48:41.718Z,12.34
2022-09-12T02:49:41.561Z,12.19
2022-09-12T02:50:41.590Z,12.29
2022-09-12T02:51:41.622Z,12.29
2022-09-12T02:52:41.644Z,12.29
2022-09-12T02:53:41.668Z,12.29
2022-09-12T02:54:41.698Z,12.23
2022-09-12T02:55:41.723Z,12.34
2022-09-12T02:56:41.752Z,12.34
2022-09-12T02:57:41.783Z,12.23
2022-09-12T02:58:41.868Z,12.29
2022-09-12T02:59:41.832Z,12.28
2022-09-12T03:00:41.857Z,12.26
2022-09-12T03:01:41.885Z,12.23
2022-09-12T03:02:41.914Z,12.28
2022-09-12T03:03:43.577Z,12.23
2022-09-12T03:04:41.965Z,12.19
2022-09-12T03:05:41.994Z,12.13
2022-09-12T03:06:42.019Z,12.08
2022-09-12T03:07:42.048Z,12.13
2022-09-12T03:08:42.142Z,12.03
2022-09-12T03:09:42.100Z,12.18
2022-09-12T03:10:42.127Z,12.16
2022-09-12T03:11:42.154Z,12.15
2022-09-12T03:12:42.180Z,12.19
2022-09-12T03:13:42.208Z,12.20
2022-09-12T03:14:42.252Z,12.10
2022-09-12T03:15:42.262Z,12.07
2022-09-12T03:16:42.358Z,12.15
2022-09-12T03:17:42.315Z,12.16
2022-09-12T03:18:42.342Z,12.16
2022-09-12T03:19:42.370Z,12.20
2022-09-12T03:20:42.393Z,12.16
2022-09-12T03:21:42.423Z,12.05
2022-09-12T03:22:42.449Z,12.10
2022-09-12T03:23:42.475Z,12.07
2022-09-12T03:24:42.502Z,12.07
2022-09-12T03:25:42.533Z,12.08
2022-09-12T03:26:42.554Z,12.15
2022-09-12T03:27:42.583Z,12.08
2022-09-12T03:28:42.609Z,12.04
2022-09-12T03:29:42.637Z,12.13
2022-09-12T03:30:42.730Z,12.19
2022-09-12T03:31:42.690Z,12.15
2022-09-12T03:32:42.717Z,12.05
2022-09-12T03:33:42.744Z,12.07
2022-09-12T03:34:42.770Z,12.08
2022-09-12T03:35:42.802Z,12.01
2022-09-12T03:36:42.822Z,12.03
2022-09-12T03:37:42.865Z,12.01
2022-09-12T03:38:42.876Z,12.08
2022-09-12T03:39:42.953Z,12.05
2022-09-12T03:40:42.929Z,12.08
2022-09-12T03:41:42.959Z,12.18
2022-09-12T03:42:42.986Z,12.08
2022-09-12T03:43:43.013Z,12.03
2022-09-12T03:44:43.037Z,12.00
2022-09-12T03:45:43.147Z,12.07
2022-09-12T03:46:43.111Z,12.00
2022-09-12T03:47:43.119Z,12.01
2022-09-12T03:48:43.145Z,12.01
2022-09-12T03:49:43.173Z,12.00
2022-09-12T03:50:43.199Z,12.04
2022-09-12T03:51:43.239Z,12.19
2022-09-12T03:52:43.253Z,12.05
2022-09-12T03:53:43.280Z,11.95
2022-09-12T03:54:43.305Z,11.91
2022-09-12T03:55:43.334Z,11.91
2022-09-12T03:56:43.358Z,11.95
2022-09-12T03:57:43.387Z,11.91
2022-09-12T03:58:43.419Z,12.00
2022-09-12T03:59:43.441Z,12.07
2022-09-12T04:00:43.475Z,12.04
2022-09-12T04:01:43.495Z,12.03
2022-09-12T04:02:43.539Z,12.15
2022-09-12T04:03:43.549Z,12.05
2022-09-12T04:04:43.573Z,12.05
2022-09-12T04:05:43.602Z,12.05
2022-09-12T04:06:43.629Z,12.07
2022-09-12T04:07:43.656Z,12.07
2022-09-12T04:08:43.773Z,11.91
2022-09-12T04:09:43.709Z,11.88
2022-09-12T04:10:43.734Z,11.94
2022-09-12T04:11:43.764Z,11.98
2022-09-12T04:12:43.791Z,11.88
2022-09-12T04:13:43.823Z,11.97
2022-09-12T04:14:43.843Z,11.85
2022-09-12T04:15:43.870Z,11.86
2022-09-12T04:16:43.929Z,11.95
2022-09-12T04:17:43.923Z,11.95
2022-09-12T04:18:43.967Z,11.89
2022-09-12T04:19:43.978Z,11.89
2022-09-12T04:20:44.001Z,11.94
2022-09-12T04:21:44.033Z,11.86
2022-09-12T04:22:44.056Z,11.91
2022-09-12T04:23:44.085Z,11.82
2022-09-12T04:24:44.108Z,12.00
2022-09-12T04:25:44.138Z,11.86
2022-09-12T04:26:44.163Z,11.88
2022-09-12T04:27:44.192Z,11.94
2022-09-12T04:28:44.230Z,11.89
2022-09-12T04:29:44.302Z,11.86
2022-09-12T04:30:44.290Z,11.85
2022-09-12T04:31:44.300Z,11.86
2022-09-12T04:32:44.325Z,11.95
2022-09-12T04:33:44.353Z,11.88
2022-09-12T04:34:44.398Z,11.82
2022-09-12T04:35:44.406Z,11.98
2022-09-12T04:36:44.432Z,11.88
2022-09-12T04:37:44.458Z,11.85
2022-09-12T04:38:44.514Z,11.97
2022-09-12T04:39:44.535Z,11.95
2022-09-12T04:40:44.636Z,12.00
2022-09-12T04:41:44.565Z,12.04
2022-09-12T04:42:44.590Z,11.97
2022-09-12T04:43:44.620Z,11.89
2022-09-12T04:44:44.644Z,11.98
2022-09-12T04:45:44.710Z,11.91
2022-09-12T04:46:44.697Z,12.10
2022-09-12T04:47:44.726Z,11.98
2022-09-12T04:48:44.832Z,12.00
2022-09-12T04:49:44.780Z,12.05
2022-09-12T04:50:44.825Z,12.08
2022-09-12T04:51:44.834Z,12.13
2022-09-12T04:52:44.858Z,12.08
2022-09-12T04:53:44.886Z,12.08
2022-09-12T04:54:44.924Z,12.15
2022-09-12T04:55:44.941Z,12.13
2022-09-12T04:56:44.966Z,12.10
2022-09-12T04:57:44.997Z,12.16
2022-09-12T04:58:45.062Z,12.10
2022-09-12T04:59:45.047Z,12.13
2022-09-12T05:00:45.072Z,12.18
2022-09-12T05:01:45.101Z,12.10
2022-09-12T05:02:45.125Z,12.13
2022-09-12T05:03:45.155Z,12.19
2022-09-12T05:04:45.179Z,12.13
2022-09-12T05:05:45.208Z,12.22
2022-09-12T05:06:45.251Z,12.20
2022-09-12T05:07:45.262Z,12.20
2022-09-12T05:08:45.372Z,12.23
2022-09-12T05:09:45.317Z,12.28
2022-09-12T05:10:45.353Z,12.29
2022-09-12T05:12:05.695Z,12.23
2022-09-12T05:12:45.393Z,12.28
2022-09-12T05:13:45.431Z,12.25
2022-09-12T05:14:45.458Z,12.25
2022-09-12T05:15:45.489Z,12.41
2022-09-12T05:16:49.194Z,12.34
2022-09-12T05:17:45.530Z,12.38
2022-09-12T05:18:45.556Z,12.43
2022-09-12T05:19:45.586Z,12.47
2022-09-12T05:20:45.609Z,12.45
2022-09-12T05:21:45.638Z,12.36
2022-09-12T05:22:45.682Z,12.48
2022-09-12T05:23:45.691Z,12.55
2022-09-12T05:24:50.329Z,12.47
2022-09-12T05:25:45.746Z,12.53
2022-09-12T05:26:45.769Z,12.53
2022-09-12T05:27:50.375Z,12.52
2022-09-12T05:28:46.966Z,12.63
2022-09-12T05:29:45.854Z,12.62
2022-09-12T05:30:45.898Z,12.71
2022-09-12T05:31:45.908Z,12.69
2022-09-12T05:32:45.932Z,12.74
2022-09-12T05:33:45.959Z,12.76
2022-09-12T05:34:45.985Z,12.76
2022-09-12T05:35:46.015Z,12.71
2022-09-12T05:36:46.845Z,12.83
2022-09-12T05:37:46.064Z,12.89
2022-09-12T05:38:46.276Z,12.96
2022-09-12T05:39:46.160Z,13.03
2022-09-12T05:40:46.144Z,13.03
2022-09-12T05:41:46.175Z,13.09
2022-09-12T05:42:46.199Z,13.17
2022-09-12T05:43:46.231Z,13.20
2022-09-12T05:44:46.254Z,13.21
2022-09-12T05:45:46.302Z,13.39
2022-09-12T05:46:46.309Z,13.40
2022-09-12T05:47:46.337Z,13.47
2022-09-12T05:48:46.530Z,13.44
2022-09-12T05:49:46.391Z,13.57
2022-09-12T05:50:46.418Z,13.54
2022-09-12T05:51:46.449Z,13.70
2022-09-12T05:52:46.471Z,13.84
2022-09-12T05:53:46.504Z,14.03
2022-09-12T05:54:46.551Z,14.23
2022-09-12T05:55:46.559Z,14.28
2022-09-12T05:56:46.590Z,14.33
2022-09-12T05:57:46.612Z,14.30
2022-09-12T05:58:46.804Z,14.38
2022-09-12T05:59:46.668Z,14.33
2022-09-12T06:00:46.693Z,14.45
2022-09-12T06:01:46.773Z,14.45
2022-09-12T06:02:46.750Z,14.53
2022-09-12T06:03:46.781Z,14.66
2022-09-12T06:04:46.805Z,14.61
2022-09-12T06:05:50.546Z,14.71
2022-09-12T06:06:46.867Z,14.70
2022-09-12T06:07:46.893Z,14.77
2022-09-12T06:08:46.997Z,14.80
2022-09-12T06:09:46.950Z,14.83
2022-09-12T06:10:46.998Z,14.79
2022-09-12T06:11:47.008Z,14.90
2022-09-12T06:12:47.033Z,14.93
2022-09-12T06:13:47.062Z,15.00
2022-09-12T06:14:47.088Z,14.94
2022-09-12T06:15:47.119Z,15.02
2022-09-12T06:16:47.301Z,14.93
2022-09-12T06:17:51.204Z,15.04
2022-09-12T06:18:47.383Z,15.04
2022-09-12T06:19:47.233Z,15.10
2022-09-12T06:20:47.260Z,15.10
2022-09-12T06:21:47.290Z,15.23
2022-09-12T06:22:47.316Z,15.22
2022-09-12T06:23:47.346Z,15.27
2022-09-12T06:24:47.374Z,15.37
2022-09-12T06:25:47.403Z,15.40
2022-09-12T06:26:47.488Z,15.41
2022-09-12T06:27:47.461Z,15.49
2022-09-12T06:28:47.672Z,15.56
2022-09-12T06:29:47.519Z,15.60
2022-09-12T06:30:47.582Z,15.62
2022-09-12T06:31:47.575Z,15.67
2022-09-12T06:32:47.602Z,15.68
2022-09-12T06:33:47.633Z,15.71
2022-09-12T06:34:47.660Z,15.68
2022-09-12T06:35:47.690Z,15.74
2022-09-12T06:36:47.718Z,15.74
2022-09-12T06:37:47.745Z,15.74
2022-09-12T06:38:47.775Z,15.81
2022-09-12T06:39:47.822Z,15.89
2022-09-12T06:40:47.832Z,16.02
2022-09-12T06:41:47.869Z,16.02
2022-09-12T06:42:47.907Z,15.98
2022-09-12T06:43:47.920Z,15.98
2022-09-12T06:44:47.949Z,16.04
2022-09-12T06:45:48.022Z,16.04
2022-09-12T06:46:48.003Z,16.08
2022-09-12T06:47:48.034Z,16.13
2022-09-12T06:48:48.209Z,16.11
2022-09-12T06:49:48.093Z,16.14
2022-09-12T06:50:48.119Z,16.30
2022-09-12T06:51:48.151Z,16.27
2022-09-12T06:52:48.178Z,16.42
2022-09-12T06:53:48.209Z,16.47
2022-09-12T06:54:48.237Z,16.59
2022-09-12T06:55:48.266Z,16.65
2022-09-12T06:56:48.294Z,16.73
2022-09-12T06:57:48.324Z,16.72
2022-09-12T06:58:48.446Z,16.87
2022-09-12T06:59:48.385Z,16.91
2022-09-12T07:00:48.411Z,17.12
2022-09-12T07:01:48.534Z,17.06
2022-09-12T07:02:48.475Z,17.09
2022-09-12T07:03:48.702Z,17.21
2022-09-12T07:04:48.530Z,17.25
2022-09-12T07:05:48.560Z,17.28
2022-09-12T07:06:48.791Z,17.32
2022-09-12T07:07:48.620Z,17.45
2022-09-12T07:08:48.649Z,17.49
2022-09-12T07:09:48.680Z,17.57
2022-09-12T07:10:48.918Z,17.65
2022-09-12T07:11:48.741Z,17.79
2022-09-12T07:12:48.970Z,17.73
2022-09-12T07:13:48.800Z,17.71
2022-09-12T07:14:48.851Z,17.86
2022-09-12T07:15:48.859Z,17.69
2022-09-12T07:16:48.911Z,17.77
2022-09-12T07:17:48.920Z,17.83
2022-09-12T07:18:48.950Z,17.76
2022-09-12T07:19:48.979Z,17.77
2022-09-12T07:20:49.010Z,17.84
2022-09-12T07:21:49.039Z,17.86
2022-09-12T07:22:49.072Z,17.84
2022-09-12T07:23:49.709Z,17.92
2022-09-12T07:24:49.129Z,18.03
2022-09-12T07:25:49.158Z,17.99
2022-09-12T07:26:49.189Z,17.96
2022-09-12T07:27:51.243Z,17.98
2022-09-12T07:28:49.248Z,18.06
2022-09-12T07:29:49.279Z,18.10
2022-09-12T07:30:49.382Z,18.17
2022-09-12T07:31:50.347Z,18.14
2022-09-12T07:32:49.685Z,18.17
2022-09-12T07:33:54.203Z,18.19
2022-09-12T07:34:49.745Z,18.27
2022-09-12T07:35:49.467Z,18.27
2022-09-12T07:36:49.705Z,18.31
2022-09-12T07:37:49.527Z,18.39
2022-09-12T07:38:49.747Z,18.41
2022-09-12T07:39:49.662Z,18.39
2022-09-12T07:42:49.680Z,18.54
2022-09-12T07:44:49.737Z,18.66
2022-09-12T07:45:51.068Z,18.82
2022-09-12T07:51:49.939Z,19.35
2022-09-12T07:53:50.910Z,19.43
2022-09-12T07:57:50.126Z,19.74
2022-09-12T07:58:50.159Z,19.68
2022-09-12T07:59:52.910Z,19.71
2022-09-12T08:03:34.130Z,20.10
2022-09-12T08:04:34.141Z,20.15
2022-09-12T08:05:34.372Z,20.29
2022-09-12T08:06:34.201Z,20.29
2022-09-12T08:07:34.233Z,20.27
2022-09-12T08:08:34.264Z,20.37
2022-09-12T08:09:34.296Z,20.10
2022-09-12T08:10:34.326Z,20.12
2022-09-12T08:11:34.354Z,20.07
2022-09-12T08:19:34.618Z,20.05
2022-09-12T08:20:34.636Z,20.19
2022-09-12T08:22:17.427Z,20.27
2022-09-12T08:23:18.662Z,20.32
2022-09-12T08:25:18.216Z,20.32
2022-09-12T08:29:17.643Z,20.30
2022-09-12T08:30:17.463Z,20.38
2022-09-12T08:31:17.894Z,20.26
2022-09-12T08:33:00.075Z,20.34
2022-09-12T08:34:00.913Z,20.37
2022-09-12T08:35:00.150Z,20.44
2022-09-12T08:36:33.375Z,20.44
2022-09-12T08:37:00.205Z,20.64
2022-09-12T08:38:00.529Z,20.66
2022-09-12T08:39:00.668Z,20.60
2022-09-12T08:40:00.372Z,20.68
2022-09-12T08:41:00.556Z,20.74
2022-09-12T08:43:34.758Z,20.74
2022-09-12T08:44:00.401Z,20.85
2022-09-12T08:45:00.433Z,20.81
2022-09-12T08:46:00.493Z,20.78
2022-09-12T08:49:05.910Z,20.60
2022-09-12T08:50:05.745Z,20.78
2022-09-12T08:51:05.756Z,20.74
2022-09-12T08:52:39.823Z,20.76
2022-09-12T08:53:06.046Z,20.74
2022-09-12T08:56:05.925Z,20.60
2022-09-12T08:58:05.977Z,20.68
2022-09-12T08:59:06.008Z,20.74
2022-09-12T09:00:06.041Z,20.68
2022-09-12T09:01:06.278Z,20.63
2022-09-12T09:02:06.167Z,20.71
2022-09-12T09:03:06.134Z,20.56
2022-09-12T09:04:06.171Z,20.56
2022-09-12T09:05:06.198Z,20.71
2022-09-12T09:06:06.249Z,20.94
2022-09-12T09:07:07.476Z,20.97
2022-09-12T09:08:06.298Z,21.01
2022-09-12T09:09:06.324Z,21.13
2022-09-12T09:10:06.364Z,21.16
2022-09-12T09:11:06.399Z,21.31
2022-09-12T09:12:06.645Z,21.41
2022-09-12T09:13:49.006Z,21.67
2022-09-12T09:14:49.042Z,21.85
2022-09-12T09:15:49.102Z,21.82
2022-09-12T09:16:49.103Z,21.92
2022-09-12T09:17:49.134Z,21.97
2022-09-12T09:18:49.168Z,22.05
2022-09-12T09:19:50.986Z,22.04
2022-09-12T09:20:49.230Z,22.05
2022-09-12T09:21:49.288Z,22.02
2022-09-12T09:22:49.297Z,22.12
2022-09-12T09:23:49.327Z,22.30
2022-09-12T09:24:49.362Z,22.30
2022-09-12T09:25:53.492Z,22.48
2022-09-12T09:26:49.420Z,22.42
2022-09-12T09:27:49.456Z,22.49
2022-09-12T09:28:49.485Z,22.57
2022-09-12T09:29:49.519Z,22.63
2022-09-12T09:30:49.561Z,22.52
2022-09-12T09:31:49.584Z,22.63
2022-09-12T09:32:49.616Z,22.60
2022-09-12T09:34:49.697Z,22.64
2022-09-12T09:36:49.745Z,22.79
2022-09-12T09:37:49.794Z,22.82
2022-09-12T09:38:49.808Z,22.79
2022-09-12T09:39:49.877Z,22.84
2022-09-12T09:40:49.871Z,22.75
2022-09-12T09:41:49.906Z,22.91
2022-09-12T09:42:49.937Z,22.89
2022-09-12T09:43:49.970Z,23.14
2022-09-12T09:44:50.000Z,23.24
2022-09-12T09:45:50.089Z,23.19
2022-09-12T09:46:50.064Z,23.21
2022-09-12T09:47:50.099Z,23.38
2022-09-12T09:48:50.128Z,23.29
2022-09-12T09:49:50.162Z,23.24
2022-09-12T09:50:50.193Z,23.29
2022-09-12T09:51:50.227Z,23.21
2022-09-12T09:52:50.257Z,23.15
2022-09-12T09:53:50.309Z,23.04
2022-09-12T09:54:50.321Z,23.09
2022-09-12T09:55:50.356Z,23.14
2022-09-12T09:56:50.384Z,23.29
2022-09-12T09:57:50.418Z,23.45
2022-09-12T09:58:50.449Z,23.56
2022-09-12T09:59:50.481Z,23.70
2022-09-12T10:00:54.856Z,23.64
2022-09-12T10:01:50.575Z,23.75
2022-09-12T10:02:50.676Z,23.74
2022-09-12T10:03:50.605Z,23.87
2022-09-12T10:04:50.637Z,23.87
2022-09-12T10:05:50.671Z,23.87
2022-09-12T10:06:50.702Z,23.94
2022-09-12T10:07:50.735Z,23.87
2022-09-12T10:08:50.765Z,23.72
2022-09-12T10:09:50.880Z,23.70
2022-09-12T10:10:50.831Z,23.77
2022-09-12T10:11:50.858Z,23.72
2022-09-12T10:12:50.888Z,23.82
2022-09-12T10:13:50.923Z,23.96
2022-09-12T10:14:51.166Z,24.02
2022-09-12T10:16:51.236Z,24.03
2022-09-12T10:18:51.298Z,24.15
2022-09-12T10:21:08.753Z,24.32
2022-09-12T10:22:08.784Z,24.24
2022-09-12T10:23:08.815Z,24.24
2022-09-12T10:24:08.849Z,24.30
2022-09-12T10:25:08.898Z,24.17
2022-09-12T10:26:08.912Z,24.03
2022-09-12T10:27:08.951Z,23.99
2022-09-12T10:28:08.978Z,23.99
2022-09-12T10:29:09.008Z,23.99
2022-09-12T10:30:09.045Z,24.07
2022-09-12T10:31:09.146Z,24.14
2022-09-12T10:32:09.120Z,24.27
2022-09-12T10:33:52.155Z,24.34
2022-09-12T10:34:52.390Z,24.40
2022-09-12T10:35:52.221Z,24.54
2022-09-12T10:36:54.871Z,24.61
2022-09-12T10:37:52.427Z,24.83
2022-09-12T10:38:52.317Z,24.86
2022-09-12T10:39:52.382Z,24.92
2022-09-12T10:40:52.405Z,24.90
2022-09-12T10:41:52.411Z,24.96
2022-09-12T10:42:52.449Z,24.90
2022-09-12T10:43:52.481Z,24.70
2022-09-12T10:44:52.512Z,24.70
2022-09-12T10:45:52.558Z,24.80
2022-09-12T10:46:52.578Z,24.82
2022-09-12T10:47:52.608Z,24.87
2022-09-12T10:48:52.643Z,24.89
2022-09-12T10:49:52.673Z,24.92
2022-09-12T10:50:52.704Z,24.90
2022-09-12T10:51:52.737Z,24.85
2022-09-12T10:52:52.771Z,24.92
2022-09-12T10:53:52.802Z,25.12
2022-09-12T10:54:52.840Z,25.12
2022-09-12T10:55:52.869Z,25.11
2022-09-12T10:56:52.922Z,25.02
2022-09-12T10:57:52.935Z,25.01
2022-09-12T10:58:52.978Z,24.90
2022-09-12T10:59:53.000Z,24.94
2022-09-12T11:00:53.035Z,24.75
2022-09-12T11:01:53.120Z,24.74
2022-09-12T11:02:53.158Z,24.80
2022-09-12T11:03:53.134Z,24.82
2022-09-12T11:04:53.166Z,25.05
2022-09-12T11:05:53.198Z,25.15
2022-09-12T11:06:53.230Z,25.26
2022-09-12T11:07:53.263Z,25.30
2022-09-12T11:08:53.298Z,25.45
2022-09-12T11:09:53.326Z,25.45
2022-09-12T11:10:53.360Z,25.39
2022-09-12T11:11:56.032Z,25.37
2022-09-12T11:12:53.425Z,25.38
2022-09-12T11:13:53.456Z,25.42
2022-09-12T11:14:53.493Z,25.48
2022-09-12T11:15:53.553Z,25.47
2022-09-12T11:16:53.552Z,25.48
2022-09-12T11:17:53.586Z,25.47
2022-09-12T11:18:53.617Z,25.51
2022-09-12T11:19:53.649Z,25.51
2022-09-12T11:26:04.745Z,25.23
2022-09-12T11:27:04.793Z,25.27
2022-09-12T11:28:04.806Z,25.39
2022-09-12T11:29:04.838Z,25.32
2022-09-12T11:30:04.872Z,25.30
2022-09-12T11:31:04.982Z,25.29
2022-09-12T11:32:04.932Z,25.27
2022-09-12T11:33:04.967Z,25.32
2022-09-12T11:34:04.998Z,25.22
2022-09-12T11:35:05.031Z,25.24
2022-09-12T11:36:05.063Z,25.32
2022-09-12T11:37:09.852Z,25.33
2022-09-12T11:38:05.128Z,25.33
2022-09-12T11:39:05.484Z,25.47
2022-09-12T11:40:05.233Z,25.51
2022-09-12T11:41:05.225Z,25.49
2022-09-12T11:42:05.255Z,25.48
2022-09-12T11:43:05.320Z,25.51
2022-09-12T11:44:05.320Z,25.45
2022-09-12T11:45:05.353Z,25.51
2022-09-12T11:46:05.415Z,25.42
2022-09-12T11:47:05.418Z,25.27
2022-09-12T11:48:05.449Z,25.29
2022-09-12T11:49:05.484Z,25.44
2022-09-12T11:50:05.514Z,25.41
2022-09-12T11:51:05.549Z,25.42
2022-09-12T11:52:05.579Z,25.47
2022-09-12T11:53:05.610Z,25.47
2022-09-12T11:54:54.028Z,25.51
2022-09-12T11:55:53.507Z,25.45
2022-09-12T11:56:53.536Z,25.47
2022-09-12T11:57:54.581Z,25.52
2022-09-12T11:59:36.181Z,25.51
2022-09-12T12:00:36.190Z,25.57
2022-09-12T12:01:41.307Z,25.49
2022-09-12T12:02:36.286Z,25.47
2022-09-12T12:03:36.308Z,25.48
2022-09-12T12:04:36.311Z,25.42
2022-09-12T12:05:36.344Z,25.39
2022-09-12T12:06:36.379Z,25.49
2022-09-12T12:07:36.407Z,25.48
2022-09-12T12:08:36.441Z,25.45
2022-09-12T12:09:36.471Z,25.47
2022-09-12T12:10:36.506Z,25.51
2022-09-12T12:11:36.535Z,25.48
2022-09-12T12:12:36.569Z,25.54
2022-09-12T12:14:24.164Z,25.67
2022-09-12T12:15:24.217Z,25.63
2022-09-12T12:16:24.337Z,25.70
2022-09-12T12:17:24.272Z,25.78
2022-09-12T12:18:24.293Z,25.69
2022-09-12T12:37:20.315Z,25.85
2022-09-12T12:38:20.303Z,25.85
2022-09-12T12:39:20.335Z,25.75
2022-09-12T12:40:20.462Z,25.75
2022-09-12T12:41:20.396Z,25.70
2022-09-12T12:42:22.437Z,25.69
2022-09-12T12:43:20.462Z,25.60
2022-09-12T12:44:20.494Z,25.66
2022-09-12T12:45:20.526Z,25.64
2022-09-12T12:46:20.671Z,25.69
2022-09-12T12:47:20.592Z,25.67
2022-09-12T12:48:20.623Z,25.70
2022-09-12T12:49:20.657Z,25.74
2022-09-12T12:50:20.690Z,25.78
2022-09-12T12:51:20.720Z,25.74
2022-09-12T12:52:20.750Z,25.70
2022-09-12T12:54:22.043Z,25.76
2022-09-12T12:55:20.848Z,25.71
2022-09-12T12:56:20.878Z,25.71
2022-09-12T12:57:20.911Z,25.75
2022-09-12T12:58:20.942Z,25.88
2022-09-12T12:59:20.981Z,25.89
2022-09-12T13:00:21.004Z,25.91
2022-09-12T13:01:21.180Z,25.82
2022-09-12T13:02:21.101Z,25.78
2022-09-12T13:03:21.104Z,25.86
2022-09-12T13:04:21.131Z,25.84
2022-09-12T13:05:21.207Z,25.86
2022-09-12T13:06:21.208Z,25.88
2022-09-12T13:07:21.232Z,25.86
2022-09-12T13:08:21.260Z,25.85
2022-09-12T13:09:21.294Z,25.85
2022-09-12T13:10:21.343Z,25.86
2022-09-12T13:11:21.360Z,25.89
2022-09-12T13:12:21.388Z,25.94
2022-09-12T13:13:21.423Z,25.94
2022-09-12T13:14:21.454Z,25.93
2022-09-12T13:15:21.486Z,26.01
2022-09-12T13:16:21.516Z,26.01
2022-09-12T13:17:21.552Z,25.96
2022-09-12T13:18:21.587Z,25.99
2022-09-12T13:19:21.614Z,26.01
2022-09-12T13:20:28.210Z,26.06
2022-09-12T13:21:21.709Z,26.09
2022-09-12T13:22:21.709Z,26.16
2022-09-12T13:23:21.742Z,26.16
2022-09-12T13:24:21.770Z,26.00
2022-09-12T13:25:21.807Z,25.96
2022-09-12T13:26:21.856Z,25.93
2022-09-12T13:27:21.870Z,25.93
2022-09-12T13:28:21.901Z,25.96
2022-09-12T13:29:21.935Z,25.93
2022-09-12T13:30:21.963Z,25.84
2022-09-12T13:31:22.054Z,25.86
2022-09-12T13:32:22.028Z,25.94
2022-09-12T13:33:22.095Z,25.91
2022-09-12T13:34:22.092Z,25.86
2022-09-12T13:35:22.126Z,25.88
2022-09-12T13:36:22.155Z,25.93
2022-09-12T13:37:22.191Z,25.89
2022-09-12T13:38:22.219Z,26.00
2022-09-12T13:39:22.254Z,26.09
2022-09-12T13:40:22.308Z,26.06
2022-09-12T13:41:22.317Z,25.99
2022-09-12T13:42:22.375Z,26.04
2022-09-12T13:43:22.383Z,26.09
2022-09-12T13:44:22.413Z,25.94
2022-09-12T13:45:22.446Z,25.85
2022-09-12T13:46:22.559Z,25.94
2022-09-12T13:47:22.512Z,25.89
2022-09-12T13:48:22.541Z,25.85
2022-09-12T13:49:22.574Z,25.85
2022-09-12T13:50:22.609Z,25.86
2022-09-12T13:51:22.640Z,25.85
2022-09-12T13:52:22.667Z,25.85
2022-09-12T13:53:22.701Z,25.88
2022-09-12T13:54:24.623Z,25.86
2022-09-12T13:55:22.767Z,25.96
2022-09-12T13:56:22.797Z,25.97
2022-09-12T13:57:22.830Z,25.91
2022-09-12T13:58:22.912Z,25.99
2022-09-12T13:59:22.894Z,25.96